createdAt,value
2017-10-12T00:00:42.031Z,10.1
2017-10-12T00:01:41.675Z,10.17
2017-10-12T00:02:41.669Z,10.1
2017-10-12T00:03:41.995Z,10.21
2017-10-12T00:04:41.647Z,10.26
2017-10-12T00:05:41.647Z,10.14
2017-10-12T00:06:41.975Z,10.13
2017-10-12T00:07:41.955Z,10.11
2017-10-12T00:08:41.614Z,10.23
2017-10-12T00:09:41.597Z,10.29
2017-10-12T00:10:41.946Z,10.23
2017-10-12T00:11:42.253Z,10.26
2017-10-12T00:12:41.921Z,10.29
2017-10-12T00:13:41.899Z,10.32
2017-10-12T00:14:41.897Z,10.29
2017-10-12T00:15:42.220Z,10.29
2017-10-12T00:16:41.543Z,10.33
2017-10-12T00:17:41.522Z,10.35
2017-10-12T00:18:41.520Z,10.28
2017-10-12T00:19:41.856Z,10.29
2017-10-12T00:20:41.834Z,10.35
2017-10-12T00:21:41.499Z,10.35
2017-10-12T00:22:41.473Z,10.32
2017-10-12T00:23:41.800Z,10.38
2017-10-12T00:24:41.789Z,10.39
2017-10-12T00:25:41.794Z,10.33
2017-10-12T00:26:41.433Z,10.32
2017-10-12T00:27:41.763Z,10.23
2017-10-12T00:28:41.786Z,10.29
2017-10-12T00:29:42.087Z,10.18
2017-10-12T00:30:41.730Z,10.21
2017-10-12T00:31:41.722Z,10.17
2017-10-12T00:32:41.377Z,10.17
2017-10-12T00:33:41.362Z,10.25
2017-10-12T00:34:41.365Z,10.28
2017-10-12T00:35:41.681Z,10.25
2017-10-12T00:36:41.334Z,10.2
2017-10-12T00:37:41.326Z,10.28
2017-10-12T00:38:41.668Z,10.14
2017-10-12T00:39:41.304Z,10.15
2017-10-12T00:40:41.293Z,10.18
2017-10-12T00:41:41.286Z,10.15
2017-10-12T00:42:41.616Z,10.15
2017-10-12T00:43:41.624Z,10.14
2017-10-12T00:44:41.941Z,10.13
2017-10-12T00:45:41.245Z,10.2
2017-10-12T00:46:41.236Z,10.14
2017-10-12T00:47:41.238Z,10.14
2017-10-12T00:48:41.557Z,10.15
2017-10-12T00:49:41.543Z,10.14
2017-10-12T00:50:41.196Z,10.15
2017-10-12T00:51:41.875Z,10.13
2017-10-12T00:52:41.528Z,10.17
2017-10-12T00:53:41.512Z,10.31
2017-10-12T00:54:41.161Z,10.21
2017-10-12T00:55:41.147Z,10.28
2017-10-12T00:56:41.482Z,10.18
2017-10-12T00:57:41.130Z,10.23
2017-10-12T00:58:41.459Z,10.25
2017-10-12T00:59:41.453Z,10.26
2017-10-12T01:00:41.443Z,10.32
2017-10-12T01:01:41.091Z,10.26
2017-10-12T01:02:41.101Z,10.23
2017-10-12T01:03:41.410Z,10.21
2017-10-12T01:04:41.082Z,10.31
2017-10-12T01:05:41.072Z,10.32
2017-10-12T01:06:41.046Z,10.26
2017-10-12T01:07:41.032Z,10.25
2017-10-12T01:08:41.024Z,10.36
2017-10-12T01:09:41.693Z,10.39
2017-10-12T01:10:41.352Z,10.36
2017-10-12T01:11:41.021Z,10.47
2017-10-12T01:12:41.324Z,10.49
2017-10-12T01:13:41.314Z,10.49
2017-10-12T01:14:40.964Z,10.52
2017-10-12T01:15:41.306Z,10.57
2017-10-12T01:16:41.305Z,10.61
2017-10-12T01:17:41.289Z,10.7
2017-10-12T01:18:40.925Z,10.69
2017-10-12T01:19:40.920Z,10.72
2017-10-12T01:20:41.263Z,10.76
2017-10-12T01:21:41.242Z,10.83
2017-10-12T01:22:40.885Z,10.87
2017-10-12T01:23:41.217Z,10.87
2017-10-12T01:24:40.877Z,11
2017-10-12T01:25:41.202Z,10.95
2017-10-12T01:26:40.848Z,11.03
2017-10-12T01:27:41.183Z,11.03
2017-10-12T01:28:40.838Z,10.94
2017-10-12T01:29:41.168Z,10.94
2017-10-12T01:30:41.148Z,10.97
2017-10-12T01:31:41.169Z,11.03
2017-10-12T01:32:40.791Z,10.95
2017-10-12T01:33:41.120Z,10.95
2017-10-12T01:34:40.778Z,10.95
2017-10-12T01:35:41.101Z,11.1
2017-10-12T01:36:40.765Z,11.05
2017-10-12T01:37:40.755Z,11.06
2017-10-12T01:38:41.074Z,11.05
2017-10-12T01:39:40.724Z,11.06
2017-10-12T01:40:41.596Z,11.15
2017-10-12T01:41:41.054Z,11.05
2017-10-12T01:42:41.040Z,11.15
2017-10-12T01:43:41.368Z,11.13
2017-10-12T01:44:40.682Z,11.16
2017-10-12T01:45:40.669Z,11.05
2017-10-12T01:46:40.660Z,11.18
2017-10-12T01:47:40.995Z,11.02
2017-10-12T01:48:40.639Z,11.09
2017-10-12T01:49:40.988Z,11.02
2017-10-12T01:50:40.636Z,11.12
2017-10-12T01:51:40.613Z,11.16
2017-10-12T01:52:40.943Z,11.06
2017-10-12T01:53:40.935Z,11.12
2017-10-12T01:54:40.927Z,11.09
2017-10-12T01:55:40.915Z,11.09
2017-10-12T01:56:40.575Z,11
2017-10-12T01:57:40.896Z,10.97
2017-10-12T01:58:40.549Z,10.88
2017-10-12T01:59:40.878Z,10.91
2017-10-12T02:00:40.903Z,10.91
2017-10-12T02:01:40.861Z,10.88
2017-10-12T02:02:40.511Z,10.94
2017-10-12T02:03:40.862Z,10.91
2017-10-12T02:04:40.844Z,10.87
2017-10-12T02:05:40.825Z,10.79
2017-10-12T02:06:40.486Z,10.9
2017-10-12T02:07:40.806Z,10.83
2017-10-12T02:08:40.457Z,10.76
2017-10-12T02:09:40.448Z,10.77
2017-10-12T02:10:40.453Z,10.76
2017-10-12T02:11:40.428Z,10.76
2017-10-12T02:12:40.422Z,10.77
2017-10-12T02:13:40.409Z,10.75
2017-10-12T02:14:40.406Z,10.69
2017-10-12T02:15:41.076Z,10.63
2017-10-12T02:16:40.381Z,10.69
2017-10-12T02:17:40.381Z,10.7
2017-10-12T02:18:40.701Z,10.67
2017-10-12T02:19:40.355Z,10.66
2017-10-12T02:20:40.350Z,10.67
2017-10-12T02:21:40.671Z,10.66
2017-10-12T02:22:40.327Z,10.67
2017-10-12T02:23:40.660Z,10.69
2017-10-12T02:24:40.677Z,10.65
2017-10-12T02:25:40.640Z,10.7
2017-10-12T02:26:40.626Z,10.7
2017-10-12T02:27:40.283Z,10.84
2017-10-12T02:28:40.616Z,10.75
2017-10-12T02:29:40.620Z,10.87
2017-10-12T02:30:40.607Z,10.79
2017-10-12T02:31:40.581Z,10.84
2017-10-12T02:32:40.236Z,10.76
2017-10-12T02:33:40.937Z,10.79
2017-10-12T02:34:40.598Z,10.91
2017-10-12T02:35:40.558Z,10.85
2017-10-12T02:36:40.199Z,10.92
2017-10-12T02:37:40.185Z,10.88
2017-10-12T02:38:40.854Z,10.91
2017-10-12T02:39:40.179Z,10.91
2017-10-12T02:40:40.501Z,11.05
2017-10-12T02:41:40.161Z,10.9
2017-10-12T02:42:40.478Z,10.97
2017-10-12T02:43:40.145Z,10.97
2017-10-12T02:44:40.120Z,10.95
2017-10-12T02:45:40.801Z,11.06
2017-10-12T02:46:40.101Z,11.05
2017-10-12T02:47:40.472Z,11
2017-10-12T02:48:40.092Z,11.05
2017-10-12T02:49:40.076Z,11.08
2017-10-12T02:50:40.405Z,10.98
2017-10-12T02:51:40.057Z,11.12
2017-10-12T02:52:40.046Z,11.09
2017-10-12T02:53:40.391Z,11.06
2017-10-12T02:54:40.367Z,11.06
2017-10-12T02:55:40.019Z,11.02
2017-10-12T02:56:40.685Z,11
2017-10-12T02:57:40.000Z,10.92
2017-10-12T02:58:39.994Z,10.87
2017-10-12T02:59:39.979Z,10.98
2017-10-12T03:00:39.972Z,10.88
2017-10-12T03:01:40.301Z,10.88
2017-10-12T03:02:40.310Z,10.88
2017-10-12T03:03:40.289Z,10.87
2017-10-12T03:04:40.650Z,10.91
2017-10-12T03:05:39.921Z,10.97
2017-10-12T03:06:39.930Z,10.97
2017-10-12T03:07:40.243Z,10.98
2017-10-12T03:08:39.897Z,11.03
2017-10-12T03:09:40.226Z,11.03
2017-10-12T03:10:39.881Z,11
2017-10-12T03:11:39.870Z,11.03
2017-10-12T03:12:40.558Z,11.12
2017-10-12T03:13:40.218Z,11.05
2017-10-12T03:14:39.841Z,11.06
2017-10-12T03:15:40.184Z,11.02
2017-10-12T03:16:39.823Z,11.1
2017-10-12T03:17:39.811Z,11.13
2017-10-12T03:18:40.144Z,10.98
2017-10-12T03:19:40.142Z,11.13
2017-10-12T03:20:39.810Z,10.98
2017-10-12T03:21:39.789Z,11.03
2017-10-12T03:22:39.768Z,11.05
2017-10-12T03:23:40.096Z,11.06
2017-10-12T03:24:40.140Z,11.05
2017-10-12T03:25:40.080Z,11.02
2017-10-12T03:26:40.082Z,11.02
2017-10-12T03:27:39.743Z,11.02
2017-10-12T03:28:39.709Z,11.06
2017-10-12T03:29:40.408Z,11.03
2017-10-12T03:30:39.695Z,11.02
2017-10-12T03:31:40.026Z,11.02
2017-10-12T03:32:40.018Z,11.1
2017-10-12T03:33:40.004Z,11.1
2017-10-12T03:34:39.688Z,11.05
2017-10-12T03:35:39.645Z,11.02
2017-10-12T03:36:39.977Z,11.13
2017-10-12T03:37:39.972Z,11.18
2017-10-12T03:38:39.620Z,11.03
2017-10-12T03:39:39.610Z,11.13
2017-10-12T03:40:39.976Z,11.13
2017-10-12T03:41:39.931Z,11.06
2017-10-12T03:42:39.924Z,11.08
2017-10-12T03:43:39.573Z,11.06
2017-10-12T03:44:39.562Z,11.06
2017-10-12T03:45:39.555Z,10.98
2017-10-12T03:46:39.547Z,11.03
2017-10-12T03:47:39.875Z,11.03
2017-10-12T03:48:39.869Z,11.08
2017-10-12T03:49:39.515Z,11
2017-10-12T03:50:39.861Z,11.02
2017-10-12T03:51:40.209Z,10.88
2017-10-12T03:52:39.492Z,10.97
2017-10-12T03:53:40.169Z,11
2017-10-12T03:54:39.491Z,10.95
2017-10-12T03:55:39.815Z,11.02
2017-10-12T03:56:39.452Z,10.97
2017-10-12T03:57:39.792Z,11.08
2017-10-12T03:58:39.781Z,10.97
2017-10-12T03:59:39.813Z,11
2017-10-12T04:00:40.096Z,11.06
2017-10-12T04:01:39.413Z,10.97
2017-10-12T04:02:39.394Z,10.88
2017-10-12T04:03:39.738Z,10.94
2017-10-12T04:04:39.399Z,10.9
2017-10-12T04:05:39.708Z,10.9
2017-10-12T04:06:39.698Z,10.92
2017-10-12T04:07:39.689Z,10.91
2017-10-12T04:08:39.355Z,10.84
2017-10-12T04:09:39.669Z,10.83
2017-10-12T04:10:39.663Z,10.88
2017-10-12T04:11:39.314Z,10.79
2017-10-12T04:12:39.642Z,10.83
2017-10-12T04:13:39.294Z,10.79
2017-10-12T04:14:39.627Z,10.77
2017-10-12T04:15:39.963Z,10.72
2017-10-12T04:16:39.305Z,10.73
2017-10-12T04:17:39.274Z,10.76
2017-10-12T04:18:39.584Z,10.77
2017-10-12T04:19:39.596Z,10.76
2017-10-12T04:20:39.563Z,10.73
2017-10-12T04:21:39.567Z,10.75
2017-10-12T04:22:39.548Z,10.8
2017-10-12T04:23:39.540Z,10.79
2017-10-12T04:24:39.192Z,10.73
2017-10-12T04:25:39.868Z,10.66
2017-10-12T04:26:39.170Z,10.66
2017-10-12T04:27:39.498Z,10.67
2017-10-12T04:28:39.158Z,10.7
2017-10-12T04:29:39.483Z,10.72
2017-10-12T04:30:39.489Z,10.65
2017-10-12T04:31:39.464Z,10.69
2017-10-12T04:32:39.115Z,10.7
2017-10-12T04:33:39.106Z,10.65
2017-10-12T04:34:39.777Z,10.69
2017-10-12T04:35:39.085Z,10.67
2017-10-12T04:36:39.766Z,10.69
2017-10-12T04:37:39.066Z,10.77
2017-10-12T04:38:39.400Z,10.72
2017-10-12T04:39:39.049Z,10.76
2017-10-12T04:40:39.377Z,10.72
2017-10-12T04:41:39.378Z,10.8
2017-10-12T04:42:39.362Z,10.83
2017-10-12T04:43:39.732Z,10.79
2017-10-12T04:44:39.002Z,10.77
2017-10-12T04:45:39.333Z,10.75
2017-10-12T04:46:38.984Z,10.72
2017-10-12T04:47:39.314Z,10.76
2017-10-12T04:48:38.983Z,10.8
2017-10-12T04:49:39.313Z,10.84
2017-10-12T04:50:38.944Z,10.8
2017-10-12T04:51:39.298Z,10.79
2017-10-12T04:52:38.926Z,10.8
2017-10-12T04:53:39.267Z,10.76
2017-10-12T04:54:39.592Z,10.83
2017-10-12T04:55:38.899Z,10.76
2017-10-12T04:56:39.238Z,10.79
2017-10-12T04:57:38.878Z,10.92
2017-10-12T04:58:38.872Z,10.94
2017-10-12T04:59:38.861Z,10.91
2017-10-12T05:00:39.234Z,10.88
2017-10-12T05:01:39.223Z,10.91
2017-10-12T05:02:39.171Z,10.88
2017-10-12T05:03:38.821Z,10.87
2017-10-12T05:04:39.153Z,10.9
2017-10-12T05:05:38.808Z,10.92
2017-10-12T05:06:38.812Z,10.9
2017-10-12T05:07:39.126Z,10.8
2017-10-12T05:08:38.778Z,10.77
2017-10-12T05:09:39.448Z,10.8
2017-10-12T05:10:39.118Z,10.67
2017-10-12T05:11:39.095Z,10.77
2017-10-12T05:12:39.424Z,10.66
2017-10-12T05:13:38.736Z,10.72
2017-10-12T05:14:39.068Z,10.77
2017-10-12T05:15:39.056Z,10.76
2017-10-12T05:16:38.704Z,10.79
2017-10-12T05:17:39.404Z,10.75
2017-10-12T05:18:38.684Z,10.87
2017-10-12T05:19:39.366Z,10.94
2017-10-12T05:20:38.665Z,10.94
2017-10-12T05:21:38.677Z,10.98
2017-10-12T05:22:38.646Z,10.94
2017-10-12T05:23:38.992Z,10.94
2017-10-12T05:24:38.629Z,10.97
2017-10-12T05:25:38.959Z,10.88
2017-10-12T05:26:38.950Z,10.91
2017-10-12T05:27:38.600Z,10.9
2017-10-12T05:28:38.590Z,10.9
2017-10-12T05:29:38.583Z,10.87
2017-10-12T05:30:38.918Z,10.94
2017-10-12T05:31:38.906Z,10.91
2017-10-12T05:32:38.551Z,10.97
2017-10-12T05:33:39.257Z,10.88
2017-10-12T05:34:38.881Z,10.94
2017-10-12T05:35:38.865Z,10.94
2017-10-12T05:36:38.867Z,11
2017-10-12T05:37:38.504Z,11.06
2017-10-12T05:38:38.568Z,10.98
2017-10-12T05:39:38.488Z,11.08
2017-10-12T05:40:39.165Z,11.05
2017-10-12T05:41:38.468Z,11.08
2017-10-12T05:42:38.806Z,11.03
2017-10-12T05:43:38.449Z,11.12
2017-10-12T05:44:38.442Z,11.05
2017-10-12T05:45:38.771Z,11.16
2017-10-12T05:46:38.764Z,11.09
2017-10-12T05:47:38.420Z,11.13
2017-10-12T05:48:39.082Z,11.16
2017-10-12T05:49:38.734Z,11.2
2017-10-12T05:50:39.077Z,11.23
2017-10-12T05:51:38.377Z,11.13
2017-10-12T05:52:38.369Z,11.26
2017-10-12T05:53:38.708Z,11.31
2017-10-12T05:54:38.348Z,11.38
2017-10-12T05:55:38.343Z,11.39
2017-10-12T05:56:38.677Z,11.42
2017-10-12T05:57:38.665Z,11.39
2017-10-12T05:58:38.312Z,11.45
2017-10-12T05:59:38.304Z,11.46
2017-10-12T06:00:38.293Z,11.53
2017-10-12T06:01:38.285Z,11.59
2017-10-12T06:02:38.277Z,11.57
2017-10-12T06:03:38.604Z,11.56
2017-10-12T06:04:38.260Z,11.66
2017-10-12T06:05:38.590Z,11.6
2017-10-12T06:06:38.582Z,11.66
2017-10-12T06:07:38.231Z,11.7
2017-10-12T06:08:38.600Z,11.66
2017-10-12T06:09:38.558Z,11.71
2017-10-12T06:10:38.566Z,11.63
2017-10-12T06:11:38.553Z,11.68
2017-10-12T06:12:38.878Z,11.67
2017-10-12T06:13:38.178Z,11.78
2017-10-12T06:14:38.172Z,11.68
2017-10-12T06:15:38.161Z,11.64
2017-10-12T06:16:38.494Z,11.63
2017-10-12T06:17:38.483Z,11.66
2017-10-12T06:18:38.477Z,11.67
2017-10-12T06:19:38.470Z,11.61
2017-10-12T06:20:38.114Z,11.68
2017-10-12T06:21:38.109Z,11.6
2017-10-12T06:22:38.100Z,11.67
2017-10-12T06:23:38.094Z,11.66
2017-10-12T06:24:38.452Z,11.66
2017-10-12T06:25:38.089Z,11.66
2017-10-12T06:26:38.413Z,11.68
2017-10-12T06:27:38.730Z,11.75
2017-10-12T06:28:38.390Z,11.75
2017-10-12T06:29:38.040Z,11.73
2017-10-12T06:30:38.371Z,11.81
2017-10-12T06:31:38.020Z,11.73
2017-10-12T06:32:38.035Z,11.85
2017-10-12T06:33:38.017Z,11.85
2017-10-12T06:34:38.337Z,11.85
2017-10-12T06:35:37.993Z,11.79
2017-10-12T06:36:38.320Z,11.85
2017-10-12T06:37:37.970Z,11.84
2017-10-12T06:38:38.649Z,11.78
2017-10-12T06:39:37.952Z,11.82
2017-10-12T06:40:37.943Z,11.82
2017-10-12T06:41:37.934Z,11.94
2017-10-12T06:42:38.619Z,11.95
2017-10-12T06:43:38.281Z,11.91
2017-10-12T06:44:38.253Z,11.98
2017-10-12T06:45:37.899Z,12.03
2017-10-12T06:46:38.240Z,12.04
2017-10-12T06:47:38.221Z,12.04
2017-10-12T06:48:37.874Z,12.07
2017-10-12T06:49:38.215Z,12.07
2017-10-12T06:50:38.564Z,12.03
2017-10-12T06:51:37.853Z,12.03
2017-10-12T06:52:38.178Z,12.04
2017-10-12T06:53:37.830Z,12.04
2017-10-12T06:54:38.501Z,12.11
2017-10-12T06:55:37.817Z,12.13
2017-10-12T06:56:37.812Z,12.04
2017-10-12T06:57:37.821Z,12.11
2017-10-12T06:58:37.792Z,12.18
2017-10-12T06:59:38.120Z,12.11
2017-10-12T07:00:37.772Z,12.18
2017-10-12T07:01:38.106Z,12.16
2017-10-12T07:02:38.112Z,12.2
2017-10-12T07:03:38.088Z,12.22
2017-10-12T07:04:37.739Z,12.2
2017-10-12T07:05:38.073Z,12.38
2017-10-12T07:06:38.400Z,12.28
2017-10-12T07:07:37.734Z,12.29
2017-10-12T07:08:37.704Z,12.29
2017-10-12T07:09:38.377Z,12.28
2017-10-12T07:10:38.034Z,12.33
2017-10-12T07:11:37.678Z,12.34
2017-10-12T07:12:38.379Z,12.33
2017-10-12T07:13:38.021Z,12.33
2017-10-12T07:14:37.998Z,12.28
2017-10-12T07:15:37.650Z,12.31
2017-10-12T07:16:37.983Z,12.37
2017-10-12T07:17:37.975Z,12.29
2017-10-12T07:18:38.308Z,12.34
2017-10-12T07:19:38.302Z,12.29
2017-10-12T07:20:37.951Z,12.31
2017-10-12T07:21:37.939Z,12.28
2017-10-12T07:22:37.591Z,12.28
2017-10-12T07:23:37.584Z,12.34
2017-10-12T07:24:38.256Z,12.4
2017-10-12T07:25:38.253Z,12.34
2017-10-12T07:26:38.258Z,12.37
2017-10-12T07:27:37.911Z,12.33
2017-10-12T07:28:37.891Z,12.36
2017-10-12T07:29:37.533Z,12.31
2017-10-12T07:30:37.527Z,12.29
2017-10-12T07:31:37.521Z,12.36
2017-10-12T07:32:37.521Z,12.29
2017-10-12T07:33:37.846Z,12.38
2017-10-12T07:34:37.832Z,12.4
2017-10-12T07:35:37.496Z,12.41
2017-10-12T07:36:37.839Z,12.43
2017-10-12T07:37:37.828Z,12.38
2017-10-12T07:38:37.800Z,12.29
2017-10-12T07:39:37.795Z,12.29
2017-10-12T07:40:37.471Z,12.36
2017-10-12T07:41:37.786Z,12.22
2017-10-12T07:42:37.436Z,12.29
2017-10-12T07:43:37.422Z,12.2
2017-10-12T07:44:37.754Z,12.13
2017-10-12T07:45:37.406Z,12.15
2017-10-12T07:46:37.398Z,12.18
2017-10-12T07:47:37.728Z,12.26
2017-10-12T07:48:38.116Z,12.25
2017-10-12T07:49:37.386Z,12.4
2017-10-12T07:50:38.047Z,12.55
2017-10-12T07:51:37.358Z,12.71
2017-10-12T07:52:37.695Z,12.86
2017-10-12T07:53:37.680Z,12.94
2017-10-12T07:54:38.047Z,13.21
2017-10-12T07:55:37.667Z,13.37
2017-10-12T07:56:38.000Z,13.54
2017-10-12T07:57:37.673Z,13.53
2017-10-12T07:58:37.983Z,13.58
2017-10-12T07:59:37.297Z,13.72
2017-10-12T08:00:37.663Z,13.86
2017-10-12T08:01:37.963Z,13.9
2017-10-12T08:02:37.625Z,13.97
2017-10-12T08:03:37.267Z,14.02
2017-10-12T08:04:37.612Z,14.03
2017-10-12T08:05:37.941Z,14.09
2017-10-12T08:06:37.248Z,14.12
2017-10-12T08:07:37.588Z,13.94
2017-10-12T08:08:37.592Z,13.99
2017-10-12T08:09:37.566Z,13.88
2017-10-12T08:10:37.223Z,13.88
2017-10-12T08:11:37.559Z,13.84
2017-10-12T08:12:37.557Z,13.75
2017-10-12T08:13:37.877Z,13.91
2017-10-12T08:14:37.533Z,13.9
2017-10-12T08:15:37.187Z,13.97
2017-10-12T08:16:37.181Z,13.9
2017-10-12T08:17:37.513Z,14.02
2017-10-12T08:18:37.869Z,14.09
2017-10-12T08:19:37.164Z,14.15
2017-10-12T08:20:37.495Z,14.05
2017-10-12T08:21:37.171Z,14.02
2017-10-12T08:22:37.142Z,14.09
2017-10-12T08:23:37.827Z,14.08
2017-10-12T08:24:37.472Z,14.05
2017-10-12T08:25:37.458Z,14.11
2017-10-12T08:26:37.454Z,14.11
2017-10-12T08:27:37.449Z,14.09
2017-10-12T08:28:37.440Z,13.97
2017-10-12T08:29:37.442Z,13.95
2017-10-12T08:30:37.427Z,13.91
2017-10-12T08:31:37.082Z,13.93
2017-10-12T08:32:37.412Z,13.86
2017-10-12T08:33:37.099Z,13.84
2017-10-12T08:34:37.064Z,13.81
2017-10-12T08:35:37.064Z,13.72
2017-10-12T08:36:37.049Z,13.6
2017-10-12T08:37:37.047Z,13.62
2017-10-12T08:38:37.377Z,13.57
2017-10-12T08:39:37.368Z,13.5
2017-10-12T08:40:37.381Z,13.53
2017-10-12T08:41:37.018Z,13.53
2017-10-12T08:42:37.028Z,13.53
2017-10-12T08:43:37.681Z,13.58
2017-10-12T08:44:37.341Z,13.57
2017-10-12T08:45:37.338Z,13.6
2017-10-12T08:46:37.340Z,13.6
2017-10-12T08:47:36.976Z,13.62
2017-10-12T08:48:36.969Z,13.69
2017-10-12T08:49:37.648Z,13.78
2017-10-12T08:50:37.303Z,13.88
2017-10-12T08:51:37.296Z,13.81
2017-10-12T08:52:36.949Z,13.86
2017-10-12T08:53:36.937Z,13.79
2017-10-12T08:54:36.949Z,13.79
2017-10-12T08:55:36.922Z,13.76
2017-10-12T08:56:37.255Z,13.73
2017-10-12T08:57:36.908Z,13.73
2017-10-12T08:58:37.255Z,13.79
2017-10-12T08:59:37.265Z,13.88
2017-10-12T09:00:36.895Z,13.86
2017-10-12T09:01:37.232Z,13.87
2017-10-12T09:02:37.234Z,14.08
2017-10-12T09:03:37.210Z,14.06
2017-10-12T09:04:36.869Z,14.21
2017-10-12T09:05:37.202Z,14.27
2017-10-12T09:06:37.227Z,14.31
2017-10-12T09:07:36.854Z,14.33
2017-10-12T09:08:37.181Z,14.36
2017-10-12T09:09:36.830Z,14.21
2017-10-12T09:10:36.825Z,14.12
2017-10-12T09:11:37.499Z,14.08
2017-10-12T09:12:37.165Z,14.27
2017-10-12T09:13:36.809Z,14.31
2017-10-12T09:14:37.212Z,14.34
2017-10-12T09:15:37.134Z,14.34
2017-10-12T09:16:37.255Z,14.34
2017-10-12T09:17:37.228Z,14.34
2017-10-12T09:18:36.789Z,14.33
2017-10-12T09:19:37.146Z,14.45
2017-10-12T09:20:37.477Z,14.33
2017-10-12T09:21:36.758Z,14.31
2017-10-12T09:22:37.094Z,14.38
2017-10-12T09:23:37.086Z,14.33
2017-10-12T09:24:36.740Z,14.31
2017-10-12T09:25:36.730Z,14.3
2017-10-12T09:26:37.069Z,14.3
2017-10-12T09:27:36.721Z,14.24
2017-10-12T09:28:36.765Z,14.24
2017-10-12T09:29:36.710Z,14.2
2017-10-12T09:30:36.714Z,14.21
2017-10-12T09:31:37.038Z,14.11
2017-10-12T09:32:36.690Z,14.12
2017-10-12T09:33:37.378Z,14.21
2017-10-12T09:34:37.373Z,14.12
2017-10-12T09:35:36.669Z,14.11
2017-10-12T09:36:36.668Z,14.12
2017-10-12T09:37:37.000Z,14.23
2017-10-12T09:38:37.005Z,14.31
2017-10-12T09:39:36.649Z,14.34
2017-10-12T09:40:37.336Z,14.44
2017-10-12T09:41:36.639Z,14.46
2017-10-12T09:42:36.975Z,14.49
2017-10-12T09:43:36.624Z,14.51
2017-10-12T09:44:36.617Z,14.61
2017-10-12T09:45:36.959Z,14.7
2017-10-12T09:46:36.947Z,14.71
2017-10-12T09:47:36.601Z,14.83
2017-10-12T09:48:36.935Z,14.86
2017-10-12T09:49:36.932Z,14.9
2017-10-12T09:50:36.926Z,14.82
2017-10-12T09:51:36.589Z,14.69
2017-10-12T09:52:37.248Z,14.57
2017-10-12T09:53:36.567Z,14.51
2017-10-12T09:54:36.563Z,14.56
2017-10-12T09:55:36.965Z,14.53
2017-10-12T09:56:36.889Z,14.46
2017-10-12T09:57:37.247Z,14.51
2017-10-12T09:58:36.540Z,14.51
2017-10-12T09:59:36.877Z,14.48
2017-10-12T10:00:36.867Z,14.45
2017-10-12T10:01:36.861Z,14.48
2017-10-12T10:02:36.853Z,14.48
2017-10-12T10:03:36.856Z,14.48
2017-10-12T10:04:36.842Z,14.49
2017-10-12T10:05:36.849Z,14.51
2017-10-12T10:06:37.230Z,14.66
2017-10-12T10:07:36.822Z,14.63
2017-10-12T10:08:36.829Z,14.57
2017-10-12T10:09:37.170Z,14.59
2017-10-12T10:10:36.469Z,14.45
2017-10-12T10:11:36.462Z,14.46
2017-10-12T10:12:37.136Z,14.48
2017-10-12T10:13:36.448Z,14.46
2017-10-12T10:14:36.790Z,14.46
2017-10-12T10:15:36.800Z,14.45
2017-10-12T10:16:36.775Z,14.42
2017-10-12T10:17:36.771Z,14.46
2017-10-12T10:18:36.760Z,14.57
2017-10-12T10:19:36.416Z,14.7
2017-10-12T10:20:37.107Z,15
2017-10-12T10:21:36.422Z,15.04
2017-10-12T10:22:36.398Z,15.08
2017-10-12T10:23:36.396Z,15.12
2017-10-12T10:24:36.390Z,15.15
2017-10-12T10:25:36.723Z,15.31
2017-10-12T10:26:36.381Z,15.4
2017-10-12T10:27:37.053Z,15.37
2017-10-12T10:28:36.365Z,15.34
2017-10-12T10:29:36.357Z,15.41
2017-10-12T10:30:36.373Z,15.34
2017-10-12T10:31:37.070Z,15.41
2017-10-12T10:32:36.686Z,15.43
2017-10-12T10:33:36.341Z,15.44
2017-10-12T10:34:36.680Z,15.45
2017-10-12T10:35:36.333Z,15.51
2017-10-12T10:36:36.661Z,15.55
2017-10-12T10:37:36.997Z,15.56
2017-10-12T10:38:36.670Z,15.52
2017-10-12T10:39:36.649Z,15.51
2017-10-12T10:40:36.981Z,15.4
2017-10-12T10:41:36.300Z,15.44
2017-10-12T10:42:36.292Z,15.45
2017-10-12T10:43:36.630Z,15.35
2017-10-12T10:44:36.296Z,15.3
2017-10-12T10:45:36.619Z,15.41
2017-10-12T10:46:36.274Z,15.45
2017-10-12T10:47:36.611Z,15.4
2017-10-12T10:48:36.278Z,15.44
2017-10-12T10:49:36.258Z,15.43
2017-10-12T10:50:36.943Z,15.43
2017-10-12T10:51:36.621Z,15.41
2017-10-12T10:52:36.241Z,15.4
2017-10-12T10:53:36.238Z,15.33
2017-10-12T10:54:36.276Z,15.3
2017-10-12T10:55:36.566Z,15.22
2017-10-12T10:56:36.564Z,15.23
2017-10-12T10:57:36.235Z,15.2
2017-10-12T10:58:36.212Z,15.2
2017-10-12T10:59:36.209Z,15.23
2017-10-12T11:00:36.203Z,15.33
2017-10-12T11:01:36.536Z,15.35
2017-10-12T11:02:36.194Z,15.43
2017-10-12T11:03:36.188Z,15.44
2017-10-12T11:04:36.522Z,15.45
2017-10-12T11:05:36.180Z,15.63
2017-10-12T11:06:36.865Z,15.62
2017-10-12T11:07:36.510Z,15.71
2017-10-12T11:08:36.506Z,15.84
2017-10-12T11:09:36.556Z,15.92
2017-10-12T11:10:36.152Z,15.96
2017-10-12T11:11:36.152Z,16.17
2017-10-12T11:12:36.502Z,16.27
2017-10-12T11:13:36.838Z,16.27
2017-10-12T11:14:36.134Z,16.25
2017-10-12T11:15:36.135Z,15.99
2017-10-12T11:16:36.140Z,15.78
2017-10-12T11:17:36.800Z,15.6
2017-10-12T11:18:36.466Z,15.53
2017-10-12T11:19:36.470Z,15.43
2017-10-12T11:20:36.127Z,15.44
2017-10-12T11:21:36.448Z,15.34
2017-10-12T11:22:36.469Z,15.35
2017-10-12T11:23:36.451Z,15.33
2017-10-12T11:24:36.426Z,15.3
2017-10-12T11:25:36.431Z,15.37
2017-10-12T11:26:36.439Z,15.3
2017-10-12T11:27:36.418Z,15.2
2017-10-12T11:28:36.085Z,15.23
2017-10-12T11:29:36.416Z,15.22
2017-10-12T11:30:36.057Z,15.19
2017-10-12T11:31:36.077Z,15.22
2017-10-12T11:32:36.048Z,15.23
2017-10-12T11:33:36.382Z,15.22
2017-10-12T11:34:36.053Z,15.2
2017-10-12T11:35:36.034Z,15.2
2017-10-12T11:36:36.366Z,15.13
2017-10-12T11:37:36.022Z,15.08
2017-10-12T11:38:36.357Z,15.04
2017-10-12T11:39:36.018Z,14.97
2017-10-12T11:40:36.010Z,14.89
2017-10-12T11:41:36.355Z,14.83
2017-10-12T11:42:35.997Z,14.82
2017-10-12T11:43:35.997Z,14.86
2017-10-12T11:44:35.990Z,14.77
2017-10-12T11:45:36.572Z,14.83
2017-10-12T11:46:35.994Z,14.8
2017-10-12T11:47:36.310Z,14.86
2017-10-12T11:48:36.305Z,14.83
2017-10-12T11:49:35.959Z,14.87
2017-10-12T11:50:36.007Z,14.87
2017-10-12T11:51:35.951Z,14.79
2017-10-12T11:52:36.628Z,14.79
2017-10-12T11:53:36.278Z,14.79
2017-10-12T11:54:35.933Z,14.85
2017-10-12T11:55:35.926Z,14.83
2017-10-12T11:56:35.922Z,14.87
2017-10-12T11:57:36.255Z,14.83
2017-10-12T11:58:36.260Z,14.8
2017-10-12T11:59:35.907Z,14.95
2017-10-12T12:00:36.250Z,14.93
2017-10-12T12:01:36.236Z,14.93
2017-10-12T12:02:36.230Z,14.97
2017-10-12T12:03:35.883Z,15.05
2017-10-12T12:04:35.879Z,15.04
2017-10-12T12:05:36.572Z,15.1
2017-10-12T12:06:35.874Z,15.15
2017-10-12T12:07:35.865Z,15.25
2017-10-12T12:08:35.876Z,15.22
2017-10-12T12:09:36.204Z,15.37
2017-10-12T12:10:35.862Z,15.45
2017-10-12T12:11:35.846Z,15.51
2017-10-12T12:12:36.518Z,15.74
2017-10-12T12:13:36.526Z,15.88
2017-10-12T12:14:36.389Z,15.96
2017-10-12T12:15:36.166Z,16.04
2017-10-12T12:16:35.820Z,16.16
2017-10-12T12:17:36.159Z,16.1
2017-10-12T12:18:36.146Z,16.08
2017-10-12T12:19:36.153Z,15.95
2017-10-12T12:20:35.802Z,15.99
2017-10-12T12:21:35.821Z,15.98
2017-10-12T12:22:36.129Z,15.92
2017-10-12T12:23:36.128Z,15.89
2017-10-12T12:24:36.494Z,15.89
2017-10-12T12:25:35.776Z,15.86
2017-10-12T12:26:36.114Z,15.7
2017-10-12T12:27:35.769Z,15.83
2017-10-12T12:28:36.102Z,15.73
2017-10-12T12:29:36.099Z,15.83
2017-10-12T12:30:35.752Z,15.91
2017-10-12T12:31:36.099Z,15.88
2017-10-12T12:32:36.086Z,15.96
2017-10-12T12:33:36.417Z,15.99
2017-10-12T12:34:35.741Z,15.92
2017-10-12T12:35:36.074Z,16.06
2017-10-12T12:36:36.065Z,16.08
2017-10-12T12:37:35.724Z,16.04
2017-10-12T12:38:36.399Z,15.96
2017-10-12T12:39:35.708Z,15.88
2017-10-12T12:40:36.048Z,15.88
2017-10-12T12:41:35.702Z,15.73
2017-10-12T12:42:35.698Z,15.71
2017-10-12T12:43:36.032Z,15.73
2017-10-12T12:44:36.045Z,15.75
2017-10-12T12:45:36.019Z,15.7
2017-10-12T12:46:35.675Z,15.74
2017-10-12T12:47:36.012Z,15.7
2017-10-12T12:48:36.371Z,15.73
2017-10-12T12:49:35.663Z,15.75
2017-10-12T12:50:36.338Z,15.71
2017-10-12T12:51:36.342Z,15.73
2017-10-12T12:52:35.651Z,15.8
2017-10-12T12:53:35.986Z,15.75
2017-10-12T12:54:36.334Z,15.81
2017-10-12T12:55:35.635Z,15.75
2017-10-12T12:56:35.631Z,15.73